Time;durP1;ratioP1;P1;durP2;ratioP2;P2;SDS_P1;SDS_P2;PMS_P1;PMS_P2;Temp;Humidity;BMP_temperature;BMP_pressure;BME280_temperature;BME280_humidity;BME280_pressure;Samples;Min_cycle;Max_cycle;Signal;HPM_P1;HPM_P2
2023/07/13 00:01:16;;;;;;;;;;;;;;;19.39;45.55;100478.38;4861572;29;6953;-74
2023/07/13 00:03:42;;;;;;;;;;;;;;;19.40;45.46;100483.63;4839103;29;6955;-73
2023/07/13 00:06:08;;;;;;;;;;;;;;;19.39;45.86;100481.88;4845748;29;7209;-72
2023/07/13 00:08:34;;;;;;;;;;;;;;;19.39;45.97;100479.28;4861155;29;6793;-73
2023/07/13 00:11:01;;;;;;;;;;;;;;;19.40;45.77;100480.13;4825588;29;7221;-72
2023/07/13 00:13:29;;;;;;;;;;;;;;;19.38;46.12;100481.84;4857105;29;6785;-73
2023/07/13 00:15:54;;;;;;;;;;;;;;;19.37;46.23;100485.31;4824461;29;6994;-73
2023/07/13 00:18:20;;;;;;;;;;;;;;;19.34;46.10;100485.28;4842922;29;6781;-72
2023/07/13 00:20:46;;;;;;;;;;;;;;;19.32;45.95;100489.59;4824917;29;7077;-74
2023/07/13 00:23:11;;;;;;;;;;;;;;;19.28;45.92;100494.72;4833945;29;7175;-73
2023/07/13 00:25:37;;;;;;;;;;;;;;;19.27;46.07;100492.97;4837302;29;8725;-73
2023/07/13 00:28:03;;;;;;;;;;;;;;;19.24;46.38;100486.84;4821590;29;7119;-71
2023/07/13 00:30:28;;;;;;;;;;;;;;;19.23;46.39;100491.19;4838521;29;6994;-71
2023/07/13 00:32:54;;;;;;;;;;;;;;;19.24;46.92;100487.75;4836399;29;6853;-73
2023/07/13 00:35:19;;;;;;;;;;;;;;;19.22;46.28;100475.56;4841461;29;6780;-71
2023/07/13 00:37:45;;;;;;;;;;;;;;;19.24;46.87;100479.06;4825307;29;7237;-73
2023/07/13 00:40:15;;;;;;;;;;;;;;;19.25;47.11;100481.69;4840214;29;6983;-74
2023/07/13 00:42:41;;;;;;;;;;;;;;;19.25;46.92;100480.81;4839313;29;6777;-71
2023/07/13 00:45:26;;;;;;;;;;;;;;;19.24;46.46;100485.16;4862834;29;7032;-74
2023/07/13 00:47:52;;;;;;;;;;;;;;;19.21;47.30;100482.47;4837923;29;8222;-73
2023/07/13 00:50:19;;;;;;;;;;;;;;;19.22;47.18;100478.16;4834776;29;6999;-73
2023/07/13 00:52:49;;;;;;;;;;;;;;;19.22;47.44;100485.97;4841683;29;6777;-72
2023/07/13 00:55:16;;;;;;;;;;;;;;;19.19;47.48;100479.00;4854536;29;7160;-73
2023/07/13 00:57:42;;;;;;;;;;;;;;;19.18;47.59;100477.25;4822775;29;6989;-72
2023/07/13 01:00:08;;;;;;;;;;;;;;;19.19;47.52;100481.59;4859889;29;6936;-71
2023/07/13 01:02:36;;;;;;;;;;;;;;;19.18;47.83;100479.84;4842894;29;6889;-72
2023/07/13 01:05:01;;;;;;;;;;;;;;;19.19;47.44;100476.41;4859103;29;6789;-73
2023/07/13 01:07:27;;;;;;;;;;;;;;;19.19;47.63;100473.81;4840516;29;8175;-73
2023/07/13 01:09:53;;;;;;;;;;;;;;;19.21;47.91;100479.88;4858289;29;6909;-74
2023/07/13 01:12:18;;;;;;;;;;;;;;;19.22;47.73;100483.38;4836587;29;7564;-72
2023/07/13 01:14:44;;;;;;;;;;;;;;;19.20;47.71;100466.91;4841675;29;6841;-72
2023/07/13 01:17:10;;;;;;;;;;;;;;;19.22;48.06;100483.38;4840242;29;6915;-73
2023/07/13 01:19:39;;;;;;;;;;;;;;;19.23;48.05;100477.31;4838958;29;6761;-73
2023/07/13 01:22:11;;;;;;;;;;;;;;;19.21;47.62;100477.28;4833041;29;7068;-73
2023/07/13 01:24:39;;;;;;;;;;;;;;;19.23;47.72;100477.31;4861313;29;7003;-74
2023/07/13 01:27:06;;;;;;;;;;;;;;;19.23;47.77;100475.59;4837761;29;7229;-73
2023/07/13 01:29:33;;;;;;;;;;;;;;;19.24;48.04;100473.88;4829114;29;6974;-73
2023/07/13 01:31:59;;;;;;;;;;;;;;;19.25;48.15;100470.41;4830121;29;6916;-72
2023/07/13 01:34:27;;;;;;;;;;;;;;;19.24;48.30;100471.25;4825587;29;6805;-72
2023/07/13 01:36:53;;;;;;;;;;;;;;;19.25;47.90;100478.22;4843795;29;6944;-74
2023/07/13 01:39:21;;;;;;;;;;;;;;;19.24;48.12;100481.66;4845683;29;8257;-72
2023/07/13 01:41:47;;;;;;;;;;;;;;;19.21;48.33;100472.09;4825469;29;6995;-72
2023/07/13 01:44:12;;;;;;;;;;;;;;;19.18;47.79;100464.25;4845515;29;6961;-73
2023/07/13 01:46:38;;;;;;;;;;;;;;;19.18;47.70;100466.88;4818649;29;6937;-73
2023/07/13 01:49:03;;;;;;;;;;;;;;;19.17;48.45;100469.44;4843869;29;7164;-73
2023/07/13 01:51:29;;;;;;;;;;;;;;;19.17;47.64;100469.44;4824679;29;7405;-74
2023/07/13 01:53:54;;;;;;;;;;;;;;;19.19;47.97;100472.94;4845475;29;6777;-71
2023/07/13 01:56:20;;;;;;;;;;;;;;;19.18;48.33;100474.66;4844740;29;6996;-73
2023/07/13 01:58:46;;;;;;;;;;;;;;;19.17;48.09;100469.44;4842624;29;6776;-72
2023/07/13 02:01:11;;;;;;;;;;;;;;;19.16;48.30;100478.97;4848220;29;6777;-75
2023/07/13 02:03:37;;;;;;;;;;;;;;;19.12;47.89;100482.34;4859691;29;7083;-74
2023/07/13 02:06:03;;;;;;;;;;;;;;;19.07;47.63;100484.88;4856995;29;6827;-74
2023/07/13 02:08:28;;;;;;;;;;;;;;;19.00;48.31;100483.94;4862052;29;7288;-73
2023/07/13 02:10:54;;;;;;;;;;;;;;;18.94;48.27;100486.44;4846741;29;6781;-72
2023/07/13 02:13:19;;;;;;;;;;;;;;;18.87;48.75;100485.44;4842747;29;7103;-72
2023/07/13 02:15:45;;;;;;;;;;;;;;;18.84;49.21;100490.59;4845087;29;6844;-73
2023/07/13 02:18:12;;;;;;;;;;;;;;;18.79;48.86;100486.19;4865831;29;6928;-73
2023/07/13 02:20:37;;;;;;;;;;;;;;;18.74;49.05;100486.09;4839395;29;7626;-73
2023/07/13 02:23:03;;;;;;;;;;;;;;;18.69;48.97;100493.81;4841324;29;6808;-71
2023/07/13 02:25:28;;;;;;;;;;;;;;;18.64;49.34;100479.91;4845764;29;6760;-73
2023/07/13 02:27:54;;;;;;;;;;;;;;;18.58;49.45;100478.06;4826647;29;6833;-73
2023/07/13 02:30:20;;;;;;;;;;;;;;;18.54;49.18;100478.88;4860855;29;6780;-71
2023/07/13 02:32:45;;;;;;;;;;;;;;;18.51;49.53;100478.84;4841664;29;6848;-70
2023/07/13 02:35:11;;;;;;;;;;;;;;;18.50;49.31;100487.47;4842663;29;7858;-70
2023/07/13 02:37:36;;;;;;;;;;;;;;;18.51;50.23;100483.13;4822638;29;6936;-71
2023/07/13 02:40:08;;;;;;;;;;;;;;;18.48;49.72;100488.28;4845068;29;7027;-73
2023/07/13 02:42:33;;;;;;;;;;;;;;;18.46;49.56;100496.91;4840250;29;6892;-72
2023/07/13 02:44:59;;;;;;;;;;;;;;;18.45;49.62;100500.38;4846934;29;7874;-72
2023/07/13 02:47:25;;;;;;;;;;;;;;;18.43;50.27;100496.00;4837213;29;7069;-73
2023/07/13 02:49:50;;;;;;;;;;;;;;;18.40;49.89;100495.94;4844780;29;6852;-72
2023/07/13 02:52:15;;;;;;;;;;;;;;;18.39;49.93;100488.97;4854433;29;7286;-72
2023/07/13 02:54:44;;;;;;;;;;;;;;;18.40;49.89;100501.13;4847457;29;6761;-71
2023/07/13 02:57:09;;;;;;;;;;;;;;;18.38;50.12;100493.31;4843755;29;6981;-70
2023/07/13 02:59:35;;;;;;;;;;;;;;;18.38;50.33;100493.31;4829377;29;7032;-73
2023/07/13 03:02:02;;;;;;;;;;;;;;;18.39;50.87;100492.47;4838875;29;6810;-73
2023/07/13 03:04:28;;;;;;;;;;;;;;;18.38;50.67;100503.69;4862004;29;6788;-72
2023/07/13 03:06:57;;;;;;;;;;;;;;;18.39;50.56;100500.25;4840546;29;6930;-72
2023/07/13 03:09:23;;;;;;;;;;;;;;;18.39;51.09;100500.25;4844990;29;7447;-70
2023/07/13 03:11:48;;;;;;;;;;;;;;;18.40;50.97;100496.81;4842347;29;6765;-70
2023/07/13 03:14:13;;;;;;;;;;;;;;;18.41;50.25;100501.16;4841233;29;7206;-70
2023/07/13 03:16:39;;;;;;;;;;;;;;;18.42;50.36;100502.88;4844691;29;6780;-71
2023/07/13 03:19:05;;;;;;;;;;;;;;;18.42;50.72;100502.88;4824384;29;6984;-71
2023/07/13 03:21:30;;;;;;;;;;;;;;;18.43;51.08;100502.03;4837199;29;7185;-70
2023/07/13 03:23:56;;;;;;;;;;;;;;;18.45;51.03;100505.56;4841555;29;6915;-71
2023/07/13 03:26:22;;;;;;;;;;;;;;;18.46;50.95;100509.91;4864090;29;8444;-71
2023/07/13 03:28:48;;;;;;;;;;;;;;;18.46;50.95;100504.72;4847293;29;6825;-70
2023/07/13 03:31:20;;;;;;;;;;;;;;;18.46;51.25;100511.59;4843889;29;6836;-70
2023/07/13 03:33:47;;;;;;;;;;;;;;;18.46;51.10;100514.19;4834505;29;7282;-70
2023/07/13 03:36:19;;;;;;;;;;;;;;;18.44;50.82;100516.75;4838182;29;7258;-70
2023/07/13 03:38:50;;;;;;;;;;;;;;;18.45;51.41;100520.25;4844741;29;6937;-69
2023/07/13 03:41:16;;;;;;;;;;;;;;;18.43;51.18;100511.56;4843100;29;6936;-70
2023/07/13 03:43:42;;;;;;;;;;;;;;;18.43;51.18;100516.75;4835717;29;7356;-71
2023/07/13 03:46:08;;;;;;;;;;;;;;;18.43;51.63;100517.59;4837495;29;6772;-70
2023/07/13 03:48:33;;;;;;;;;;;;;;;18.44;50.90;100519.34;4838849;29;7090;-70
2023/07/13 03:50:59;;;;;;;;;;;;;;;18.45;51.24;100520.25;4855338;29;8452;-71
2023/07/13 03:53:24;;;;;;;;;;;;;;;18.44;51.10;100521.94;4824140;29;6975;-70
2023/07/13 03:55:50;;;;;;;;;;;;;;;18.46;51.42;100527.16;4825680;29;6859;-70
2023/07/13 03:58:26;;;;;;;;;;;;;;;18.48;51.34;100527.22;4852118;29;6919;-70
2023/07/13 04:00:53;;;;;;;;;;;;;;;18.49;51.69;100531.56;4817207;29;6988;-70
2023/07/13 04:03:18;;;;;;;;;;;;;;;18.52;52.09;100534.19;4837129;29;6805;-70
2023/07/13 04:05:44;;;;;;;;;;;;;;;18.53;51.75;100523.84;4838846;29;6780;-71
2023/07/13 04:08:09;;;;;;;;;;;;;;;18.57;52.02;100519.59;4854196;29;7012;-71
2023/07/13 04:10:35;;;;;;;;;;;;;;;18.59;51.81;100529.16;4850124;29;6863;-70
2023/07/13 04:13:00;;;;;;;;;;;;;;;18.63;51.72;100530.06;4838207;29;7166;-70
2023/07/13 04:15:30;;;;;;;;;;;;;;;18.67;51.81;100530.97;4839207;29;6927;-70
2023/07/13 04:17:55;;;;;;;;;;;;;;;18.70;51.98;100536.25;4841962;29;7203;-70
2023/07/13 04:20:21;;;;;;;;;;;;;;;18.71;52.27;100538.84;4841501;29;7102;-71
2023/07/13 04:22:47;;;;;;;;;;;;;;;18.76;51.42;100548.44;4858068;29;6978;-69
2023/07/13 04:25:12;;;;;;;;;;;;;;;18.81;51.98;100550.28;4838993;29;7103;-70
2023/07/13 04:27:39;;;;;;;;;;;;;;;18.95;52.49;100541.81;4831115;29;6962;-70
2023/07/13 04:30:06;;;;;;;;;;;;;;;19.14;52.32;100545.63;4856838;29;6804;-70
2023/07/13 04:32:31;;;;;;;;;;;;;;;19.36;52.04;100553.72;4841726;29;7215;-70
2023/07/13 04:34:59;;;;;;;;;;;;;;;19.54;51.75;100551.38;4842945;29;7177;-71
2023/07/13 04:37:25;;;;;;;;;;;;;;;19.73;52.33;100551.63;4827829;29;7081;-71
2023/07/13 04:39:51;;;;;;;;;;;;;;;19.94;52.00;100555.38;4863581;29;6772;-70
2023/07/13 04:42:16;;;;;;;;;;;;;;;20.14;51.49;100549.50;4840351;29;7139;-70
2023/07/13 04:44:42;;;;;;;;;;;;;;;20.31;51.30;100542.75;4842447;29;7073;-71
2023/07/13 04:47:07;;;;;;;;;;;;;;;20.50;51.38;100542.94;4820324;29;8087;-70
2023/07/13 04:49:33;;;;;;;;;;;;;;;20.67;51.03;100545.69;4842202;29;6772;-70
2023/07/13 04:51:58;;;;;;;;;;;;;;;20.81;50.37;100551.91;4855623;29;6812;-71
2023/07/13 04:54:24;;;;;;;;;;;;;;;20.94;49.96;100541.59;4841213;29;7279;-73
2023/07/13 04:56:49;;;;;;;;;;;;;;;21.02;49.99;100554.66;4842720;29;7028;-71
2023/07/13 04:59:15;;;;;;;;;;;;;;;21.17;50.03;100556.50;4827365;29;6949;-72
2023/07/13 05:01:41;;;;;;;;;;;;;;;21.34;49.70;100554.88;4839619;29;6785;-70
2023/07/13 05:04:06;;;;;;;;;;;;;;;21.55;49.29;100553.25;4839502;29;7237;-71
2023/07/13 05:06:32;;;;;;;;;;;;;;;21.70;48.88;100552.50;4850884;29;7158;-70
2023/07/13 05:08:57;;;;;;;;;;;;;;;21.87;48.46;100565.59;4847464;29;6777;-71
2023/07/13 05:11:23;;;;;;;;;;;;;;;21.99;48.11;100563.91;4847628;29;6965;-72
2023/07/13 05:13:49;;;;;;;;;;;;;;;22.05;47.66;100559.59;4841559;29;7163;-72
2023/07/13 05:16:14;;;;;;;;;;;;;;;22.05;47.62;100559.59;4834470;29;6765;-71
2023/07/13 05:18:40;;;;;;;;;;;;;;;22.00;47.21;100565.66;4836833;29;6768;-71
2023/07/13 05:21:08;;;;;;;;;;;;;;;21.96;47.60;100564.78;4842928;29;6776;-71
2023/07/13 05:23:35;;;;;;;;;;;;;;;21.97;47.22;100570.84;4855105;29;6784;-71
2023/07/13 05:26:01;;;;;;;;;;;;;;;21.98;47.05;100570.88;4821306;29;7011;-71
2023/07/13 05:28:28;;;;;;;;;;;;;;;21.94;47.04;100566.50;4856826;29;6817;-72
2023/07/13 05:30:56;;;;;;;;;;;;;;;21.85;47.09;100569.09;4838231;29;6793;-71
2023/07/13 05:33:22;;;;;;;;;;;;;;;21.73;47.25;100568.16;4824205;29;7893;-71
2023/07/13 05:35:48;;;;;;;;;;;;;;;21.68;47.44;100571.59;4845514;29;6820;-71
2023/07/13 05:38:13;;;;;;;;;;;;;;;21.67;47.80;100578.56;4861054;29;7228;-72
2023/07/13 05:40:39;;;;;;;;;;;;;;;21.70;47.68;100580.31;4846568;29;6781;-71
2023/07/13 05:43:04;;;;;;;;;;;;;;;21.73;47.65;100582.94;4845039;29;7035;-71
2023/07/13 05:45:30;;;;;;;;;;;;;;;21.76;47.56;100586.44;4847058;29;7266;-71
2023/07/13 05:47:56;;;;;;;;;;;;;;;21.91;48.17;100584.75;4858235;29;7004;-72
2023/07/13 05:50:21;;;;;;;;;;;;;;;22.15;48.06;100593.53;4860987;29;7199;-72
2023/07/13 05:52:47;;;;;;;;;;;;;;;22.39;48.33;100597.06;4840159;29;7374;-72
2023/07/13 05:55:13;;;;;;;;;;;;;;;22.61;48.13;100592.78;4867237;29;6784;-71
2023/07/13 05:57:38;;;;;;;;;;;;;;;22.85;47.54;100599.78;4860564;29;6784;-72
2023/07/13 06:00:05;;;;;;;;;;;;;;;23.10;47.43;100589.34;4825356;29;6953;-71
2023/07/13 06:02:30;;;;;;;;;;;;;;;23.30;46.72;100601.53;4832299;29;6975;-72
2023/07/13 06:04:56;;;;;;;;;;;;;;;23.37;45.77;100603.28;4860101;29;7285;-71
2023/07/13 06:07:21;;;;;;;;;;;;;;;23.37;45.38;100608.50;4848011;29;6769;-71
2023/07/13 06:09:47;;;;;;;;;;;;;;;23.34;45.53;100598.03;4844320;29;6993;-71
2023/07/13 06:12:12;;;;;;;;;;;;;;;23.25;45.49;100603.25;4844581;29;7848;-72
2023/07/13 06:14:37;;;;;;;;;;;;;;;23.11;45.07;100603.25;4842702;29;6776;-72
2023/07/13 06:17:03;;;;;;;;;;;;;;;23.02;45.39;100605.00;4822953;29;6966;-72
2023/07/13 06:19:29;;;;;;;;;;;;;;;22.96;45.40;100612.84;4847856;29;7022;-71
2023/07/13 06:21:54;;;;;;;;;;;;;;;22.93;46.26;100617.22;4845737;29;6816;-69
2023/07/13 06:24:20;;;;;;;;;;;;;;;22.92;45.81;100615.47;4856591;29;6874;-71
2023/07/13 06:26:45;;;;;;;;;;;;;;;22.89;46.06;100617.22;4839740;29;7510;-69
2023/07/13 06:29:11;;;;;;;;;;;;;;;22.84;45.57;100613.72;4842513;29;6964;-70
2023/07/13 06:31:36;;;;;;;;;;;;;;;22.77;45.86;100621.56;4841886;29;7315;-71
2023/07/13 06:34:02;;;;;;;;;;;;;;;22.72;46.02;100629.38;4861957;29;6768;-69
2023/07/13 06:36:28;;;;;;;;;;;;;;;22.68;45.98;100632.84;4843078;29;7148;-71
2023/07/13 06:38:53;;;;;;;;;;;;;;;22.60;45.99;100636.34;4850442;29;7135;-69
2023/07/13 06:41:19;;;;;;;;;;;;;;;22.53;46.49;100644.13;4843630;29;6987;-69
2023/07/13 06:43:44;;;;;;;;;;;;;;;;;;4845804;29;6871;-68
2023/07/13 06:46:10;;;;;;;;;;;;;;;22.47;46.97;100643.25;4838830;29;13483;-72
2023/07/13 06:48:35;;;;;;;;;;;;;;;22.50;46.90;100647.59;4840703;29;7184;-68
2023/07/13 06:51:02;;;;;;;;;;;;;;;22.53;47.36;100652.84;4844917;29;7187;-71
2023/07/13 06:53:27;;;;;;;;;;;;;;;22.59;47.05;100652.00;4839537;29;7003;-72
2023/07/13 06:55:53;;;;;;;;;;;;;;;22.63;47.24;100645.91;4841449;29;7174;-70
2023/07/13 06:58:18;;;;;;;;;;;;;;;22.66;46.84;100655.50;4845394;29;6773;-71
2023/07/13 07:00:44;;;;;;;;;;;;;;;22.67;47.11;100665.06;4830064;29;6998;-69
2023/07/13 07:03:10;;;;;;;;;;;;;;;22.70;47.24;100655.50;4861513;29;6784;-69
2023/07/13 07:05:35;;;;;;;;;;;;;;;22.74;47.38;100651.16;4852091;29;6825;-69
2023/07/13 07:08:01;;;;;;;;;;;;;;;22.76;47.31;100657.25;4845939;29;6773;-70
2023/07/13 07:10:30;;;;;;;;;;;;;;;22.80;46.89;100658.13;4846237;29;6875;-68
2023/07/13 07:12:55;;;;;;;;;;;;;;;22.86;47.16;100660.75;4841949;29;6925;-70
2023/07/13 07:15:21;;;;;;;;;;;;;;;22.96;47.46;100661.63;4846980;29;6936;-69
2023/07/13 07:17:46;;;;;;;;;;;;;;;23.03;47.14;100660.75;4846815;29;6764;-72
2023/07/13 07:20:12;;;;;;;;;;;;;;;23.08;47.14;100659.03;4846060;29;6749;-68
2023/07/13 07:22:37;;;;;;;;;;;;;;;23.12;47.31;100667.72;4841857;29;7826;-71
2023/07/13 07:25:03;;;;;;;;;;;;;;;23.21;46.83;100667.72;4849223;29;6839;-69
2023/07/13 07:27:29;;;;;;;;;;;;;;;23.35;47.53;100678.22;4830081;29;7094;-71
2023/07/13 07:29:54;;;;;;;;;;;;;;;23.46;47.11;100669.47;4837293;29;7442;-70
2023/07/13 07:32:20;;;;;;;;;;;;;;;23.57;47.33;100665.13;4844951;29;6855;-72
2023/07/13 07:34:45;;;;;;;;;;;;;;;23.69;46.88;100661.59;4844034;29;6925;-70
2023/07/13 07:37:13;;;;;;;;;;;;;;;23.83;47.13;100669.41;4845450;29;6781;-69
2023/07/13 07:39:39;;;;;;;;;;;;;;;23.99;46.70;100665.00;4846457;29;6872;-71
2023/07/13 07:42:05;;;;;;;;;;;;;;;24.16;46.23;100656.25;4843139;29;7175;-69
2023/07/13 07:44:32;;;;;;;;;;;;;;;24.29;46.35;100660.56;4845554;29;6764;-69
2023/07/13 07:46:58;;;;;;;;;;;;;;;24.38;45.88;100662.25;4863504;29;6781;-70
2023/07/13 07:49:24;;;;;;;;;;;;;;;24.44;45.59;100669.22;4861020;29;6853;-72
2023/07/13 07:51:49;;;;;;;;;;;;;;;24.48;45.49;100671.81;4861372;29;6883;-69
2023/07/13 07:54:15;;;;;;;;;;;;;;;24.57;44.76;100676.13;4845284;29;6765;-72
2023/07/13 07:56:41;;;;;;;;;;;;;;;24.64;45.25;100675.22;4844835;29;7159;-71
2023/07/13 07:59:06;;;;;;;;;;;;;;;24.72;44.75;100675.16;4843364;29;6923;-70
2023/07/13 08:01:32;;;;;;;;;;;;;;;24.77;44.76;100677.75;4826657;29;7383;-69
2023/07/13 08:03:57;;;;;;;;;;;;;;;24.84;45.00;100676.84;4859824;29;6836;-70
2023/07/13 08:06:23;;;;;;;;;;;;;;;24.94;44.60;100673.28;4842687;29;6864;-69
2023/07/13 08:08:49;;;;;;;;;;;;;;;25.10;44.55;100671.41;4844900;29;6769;-73
2023/07/13 08:11:14;;;;;;;;;;;;;;;25.29;44.18;100667.78;4844170;29;6805;-72
2023/07/13 08:13:40;;;;;;;;;;;;;;;25.49;44.04;100670.19;4861782;29;6772;-70
2023/07/13 08:16:06;;;;;;;;;;;;;;;25.69;44.09;100661.28;4845657;29;6761;-71
2023/07/13 08:18:31;;;;;;;;;;;;;;;25.88;43.24;100667.22;4843843;29;6785;-69
2023/07/13 08:20:58;;;;;;;;;;;;;;;25.98;42.10;100660.97;4860895;29;7205;-69
2023/07/13 08:23:24;;;;;;;;;;;;;;;26.10;42.11;100665.22;4860278;29;6861;-70
2023/07/13 08:25:53;;;;;;;;;;;;;;;26.24;41.52;100658.94;4858592;29;6950;-69
2023/07/13 08:28:20;;;;;;;;;;;;;;;26.42;41.57;100658.69;4845327;29;6797;-72
2023/07/13 08:30:48;;;;;;;;;;;;;;;26.65;41.74;100660.09;4858523;29;6846;-72
2023/07/13 08:33:25;;;;;;;;;;;;;;;26.89;40.80;100653.63;4846114;29;6999;-70
2023/07/13 08:35:51;;;;;;;;;;;;;;;27.03;40.22;100661.28;4829149;29;6989;-72
2023/07/13 08:38:17;;;;;;;;;;;;;;;27.06;39.69;100646.38;4827028;29;7190;-70
2023/07/13 08:40:42;;;;;;;;;;;;;;;27.08;40.17;100650.69;4843641;29;6789;-71
2023/07/13 08:43:19;;;;;;;;;;;;;;;27.12;39.69;100649.75;4842939;29;7160;-70
2023/07/13 08:46:01;;;;;;;;;;;;;;;27.24;40.13;100653.06;4848849;29;6802;-70
2023/07/13 08:48:32;;;;;;;;;;;;;;;27.41;40.11;100644.88;4843000;29;7208;-70
2023/07/13 08:51:09;;;;;;;;;;;;;;;27.64;40.03;100651.50;4858431;29;6863;-70
2023/07/13 08:53:45;;;;;;;;;;;;;;;27.84;39.46;100646.72;4839709;29;6995;-68
2023/07/13 08:56:19;;;;;;;;;;;;;;;28.09;39.49;100647.97;4841774;29;7057;-72
2023/07/13 08:58:49;;;;;;;;;;;;;;;28.32;39.10;100650.16;4858203;29;6793;-73
2023/07/13 09:01:32;;;;;;;;;;;;;;;28.51;38.42;100649.72;4840180;29;6852;-72
2023/07/13 09:04:18;;;;;;;;;;;;;;;28.70;38.86;100644.88;4842624;29;6796;-72
2023/07/13 09:06:46;;;;;;;;;;;;;;;29.09;38.69;100638.69;4843639;29;7245;-73
2023/07/13 09:09:34;;;;;;;;;;;;;;;29.67;37.99;100635.44;4841796;29;7096;-73
2023/07/13 09:12:17;;;;;;;;;;;;;;;30.32;37.08;100636.16;4843390;29;6856;-73
2023/07/13 09:14:47;;;;;;;;;;;;;;;30.84;36.87;100638.09;4844832;29;6789;-73
2023/07/13 09:17:18;;;;;;;;;;;;;;;31.34;36.04;100636.44;4859570;29;6853;-73
2023/07/13 09:19:50;;;;;;;;;;;;;;;31.57;34.79;100632.09;4845912;29;7391;-73
2023/07/13 09:22:19;;;;;;;;;;;;;;;31.60;34.08;100642.59;4852000;29;6966;-72
2023/07/13 09:24:54;;;;;;;;;;;;;;;31.48;33.25;100638.59;4853612;29;6810;-73
2023/07/13 09:27:24;;;;;;;;;;;;;;;31.44;33.57;100635.19;4831999;29;6870;-73
2023/07/13 09:29:58;;;;;;;;;;;;;;;31.66;33.24;100637.06;4852228;29;6955;-73
2023/07/13 09:32:26;;;;;;;;;;;;;;;31.97;32.43;100635.09;4834024;29;6816;-73
2023/07/13 09:34:53;;;;;;;;;;;;;;;32.28;32.59;100634.75;4866335;29;6796;-73
2023/07/13 09:37:23;;;;;;;;;;;;;;;32.42;31.83;100634.25;4829614;29;6929;-73
2023/07/13 09:39:49;;;;;;;;;;;;;;;32.54;31.83;100635.50;4845203;29;6980;-73
2023/07/13 09:42:21;;;;;;;;;;;;;;;32.63;31.78;100639.59;4864357;29;7005;-73
2023/07/13 09:44:58;;;;;;;;;;;;;;;32.97;32.04;100642.66;4844059;29;6796;-73
2023/07/13 09:47:29;;;;;;;;;;;;;;;33.14;31.23;100641.09;4827252;29;6866;-73
2023/07/13 09:50:03;;;;;;;;;;;;;;;33.17;31.07;100636.47;4855304;29;6824;-73
2023/07/13 09:52:40;;;;;;;;;;;;;;;33.32;30.75;100644.72;4855087;29;6853;-73
2023/07/13 09:55:30;;;;;;;;;;;;;;;33.53;30.54;100640.28;4842489;29;6879;-73
2023/07/13 09:57:56;;;;;;;;;;;;;;;33.65;30.52;100650.34;4842080;29;7025;-73
2023/07/13 10:00:26;;;;;;;;;;;;;;;33.85;30.13;100651.25;4841166;29;6812;-73
2023/07/13 10:03:03;;;;;;;;;;;;;;;34.05;29.67;100654.78;4842854;29;6796;-73
2023/07/13 10:05:37;;;;;;;;;;;;;;;34.12;29.52;100642.94;4856419;29;6870;-73
2023/07/13 10:08:03;;;;;;;;;;;;;;;34.09;29.70;100647.53;4839923;29;7135;-73
2023/07/13 10:10:29;;;;;;;;;;;;;;;34.11;28.72;100649.19;4858658;29;6951;-73
2023/07/13 10:12:54;;;;;;;;;;;;;;;34.07;29.02;100644.94;4845390;29;6852;-72
2023/07/13 10:15:25;;;;;;;;;;;;;;;33.80;28.80;100650.56;4844785;29;6769;-73
2023/07/13 10:17:57;;;;;;;;;;;;;;;33.23;28.82;100661.94;4827926;29;7467;-73
2023/07/13 10:20:24;;;;;;;;;;;;;;;32.91;29.23;100649.06;4828095;29;7063;-72
2023/07/13 10:23:02;;;;;;;;;;;;;;;32.86;29.07;100658.16;4844530;29;7165;-72
2023/07/13 10:25:34;;;;;;;;;;;;;;;32.71;29.59;100657.84;4849797;29;6800;-73
2023/07/13 10:28:26;;;;;;;;;;;;;;;32.40;29.33;100659.09;4847750;29;6965;-73
2023/07/13 10:30:54;;;;;;;;;;;;;;;32.03;29.73;100658.72;4850624;29;6785;-72
2023/07/13 10:33:20;;;;;;;;;;;;;;;31.79;30.41;100658.66;4836853;29;7477;-73
2023/07/13 10:35:48;;;;;;;;;;;;;;;31.97;30.60;100666.88;4845168;29;6792;-73
2023/07/13 10:38:20;;;;;;;;;;;;;;;32.39;30.27;100657.38;4848659;29;6989;-73
2023/07/13 10:41:03;;;;;;;;;;;;;;;32.65;29.64;100663.41;4863305;29;10434;-73
2023/07/13 10:43:38;;;;;;;;;;;;;;;32.73;29.31;100671.06;4864504;29;7045;-73
2023/07/13 10:46:07;;;;;;;;;;;;;;;33.05;29.75;100666.22;4845990;29;7062;-73
2023/07/13 10:48:36;;;;;;;;;;;;;;;33.50;29.18;100664.31;4825684;29;6995;-73
2023/07/13 10:51:06;;;;;;;;;;;;;;;33.88;28.57;100660.88;4847225;29;7380;-73
2023/07/13 10:53:34;;;;;;;;;;;;;;;34.14;27.87;100667.66;4863393;29;6863;-73
2023/07/13 10:56:28;;;;;;;;;;;;;;;34.17;28.07;100662.19;4845833;29;6840;-73
2023/07/13 10:59:09;;;;;;;;;;;;;;;34.35;27.99;100659.59;4832753;29;6988;-73
2023/07/13 11:02:00;;;;;;;;;;;;;;;34.28;27.47;100666.13;4849470;29;7307;-73
2023/07/13 11:04:27;;;;;;;;;;;;;;;34.04;28.04;100666.38;4836426;29;6980;-74
2023/07/13 11:06:59;;;;;;;;;;;;;;;33.71;27.74;100665.16;4867011;29;6773;-73
2023/07/13 11:09:43;;;;;;;;;;;;;;;33.72;28.06;100656.25;4846038;29;6781;-73
2023/07/13 11:12:48;;;;;;;;;;;;;;;33.83;27.98;100658.44;4841479;29;7393;-73
2023/07/13 11:15:13;;;;;;;;;;;;;;;33.80;27.33;100661.19;4847008;29;6872;-73
2023/07/13 11:17:51;;;;;;;;;;;;;;;33.56;27.48;100655.22;4861162;29;6980;-74
2023/07/13 11:20:16;;;;;;;;;;;;;;;33.07;27.65;100659.91;4849316;29;6797;-73
2023/07/13 11:22:47;;;;;;;;;;;;;;;32.68;27.91;100668.59;4844531;29;6765;-73
2023/07/13 11:25:34;;;;;;;;;;;;;;;32.49;28.56;100664.03;4856755;29;7136;-73
2023/07/13 11:28:11;;;;;;;;;;;;;;;32.91;28.93;100664.13;4847111;29;6842;-73
2023/07/13 11:30:40;;;;;;;;;;;;;;;33.52;28.65;100660.66;4844593;29;6951;-73
2023/07/13 11:33:15;;;;;;;;;;;;;;;34.05;27.72;100657.47;4842696;29;6816;-73
2023/07/13 11:35:48;;;;;;;;;;;;;;;34.49;27.69;100650.94;4848750;29;7261;-73
2023/07/13 11:38:20;;;;;;;;;;;;;;;34.77;27.25;100660.25;4863186;29;6789;-73
2023/07/13 11:40:48;;;;;;;;;;;;;;;34.98;27.11;100653.00;4845364;29;7085;-73
2023/07/13 11:43:16;;;;;;;;;;;;;;;35.06;26.21;100654.41;4853429;29;6950;-72
2023/07/13 11:45:43;;;;;;;;;;;;;;;35.01;26.50;100662.59;4849131;29;6785;-72
2023/07/13 11:48:21;;;;;;;;;;;;;;;34.98;26.15;100657.44;4847299;29;7212;-73
2023/07/13 11:51:01;;;;;;;;;;;;;;;35.07;26.00;100657.00;4845953;29;7193;-73
2023/07/13 11:53:30;;;;;;;;;;;;;;;35.27;25.55;100661.31;4864102;29;6797;-73
2023/07/13 11:55:57;;;;;;;;;;;;;;;35.49;25.29;100659.28;4825605;29;6948;-72
2023/07/13 11:58:25;;;;;;;;;;;;;;;35.40;24.67;100648.22;4845545;29;6797;-72
2023/07/13 12:00:54;;;;;;;;;;;;;;;35.31;25.23;100662.84;4843622;29;7125;-73
2023/07/13 12:03:24;;;;;;;;;;;;;;;35.31;25.70;100649.53;4861259;29;7252;-73
2023/07/13 12:06:32;;;;;;;;;;;;;;;35.07;24.93;100648.16;4846361;29;7221;-73
2023/07/13 12:09:03;;;;;;;;;;;;;;;34.56;25.74;100656.84;4838272;29;6957;-73
2023/07/13 12:11:30;;;;;;;;;;;;;;;34.46;25.93;100653.75;4860778;29;6836;-73
2023/07/13 12:13:55;;;;;;;;;;;;;;;34.16;25.44;100657.81;4867124;29;6934;-73
2023/07/13 12:16:32;;;;;;;;;;;;;;;33.56;25.75;100650.78;4864884;29;6929;-73
2023/07/13 12:19:00;;;;;;;;;;;;;;;33.00;26.26;100669.06;4846680;29;7251;-72
2023/07/13 12:21:36;;;;;;;;;;;;;;;33.02;26.96;100656.59;4866936;29;6784;-73
2023/07/13 12:24:03;;;;;;;;;;;;;;;33.07;26.50;100659.03;4846598;29;6793;-72
2023/07/13 12:26:30;;;;;;;;;;;;;;;32.79;26.89;100666.34;4823191;29;7065;-73
2023/07/13 12:29:00;;;;;;;;;;;;;;;32.36;26.89;100663.66;4856758;29;6765;-72
2023/07/13 12:31:34;;;;;;;;;;;;;;;31.99;27.59;100670.34;4880736;29;7003;-72
2023/07/13 12:34:13;;;;;;;;;;;;;;;32.00;28.22;100678.22;4837361;29;7105;-72
2023/07/13 12:36:54;;;;;;;;;;;;;;;32.27;27.21;100672.81;4848968;29;6975;-73
2023/07/13 12:39:36;;;;;;;;;;;;;;;32.44;26.99;100668.63;4847345;29;6817;-72
2023/07/13 12:42:27;;;;;;;;;;;;;;;32.74;26.72;100672.78;4844651;29;6784;-73
2023/07/13 12:44:59;;;;;;;;;;;;;;;33.04;26.50;100669.81;4856947;29;7387;-72
2023/07/13 12:47:25;;;;;;;;;;;;;;;33.29;26.64;100671.41;4860015;29;6915;-72
2023/07/13 12:49:55;;;;;;;;;;;;;;;33.33;26.48;100671.22;4844559;29;6908;-72
2023/07/13 12:52:24;;;;;;;;;;;;;;;33.42;26.31;100674.41;4843087;29;6947;-73
2023/07/13 12:54:56;;;;;;;;;;;;;;;33.51;25.82;100668.69;4861040;29;6796;-72